sensor_id;sensor_type;location;lat;lon;timestamp;temperature;humidity
5723;DHT22;2886;49.722;8.612;2023-03-31T00:00:52;12.20;99.90
5723;DHT22;2886;49.722;8.612;2023-03-31T00:03:18;12.30;99.90
5723;DHT22;2886;49.722;8.612;2023-03-31T00:06:04;12.20;99.90
5723;DHT22;2886;49.722;8.612;2023-03-31T00:08:30;12.30;99.90
5723;DHT22;2886;49.722;8.612;2023-03-31T00:11:01;12.30;99.90
5723;DHT22;2886;49.722;8.612;2023-03-31T00:13:29;12.30;99.90
5723;DHT22;2886;49.722;8.612;2023-03-31T00:15:56;12.30;99.90
5723;DHT22;2886;49.722;8.612;2023-03-31T00:18:22;12.30;99.90
5723;DHT22;2886;49.722;8.612;2023-03-31T00:20:51;12.20;99.90
5723;DHT22;2886;49.722;8.612;2023-03-31T00:23:18;12.20;99.90
5723;DHT22;2886;49.722;8.612;2023-03-31T00:25:54;12.20;99.90
5723;DHT22;2886;49.722;8.612;2023-03-31T00:28:20;12.20;99.90
5723;DHT22;2886;49.722;8.612;2023-03-31T00:30:46;12.20;99.90
5723;DHT22;2886;49.722;8.612;2023-03-31T00:33:12;12.20;99.90
5723;DHT22;2886;49.722;8.612;2023-03-31T00:35:38;12.20;99.90
5723;DHT22;2886;49.722;8.612;2023-03-31T00:38:05;12.20;99.90
5723;DHT22;2886;49.722;8.612;2023-03-31T00:40:34;12.20;99.90
5723;DHT22;2886;49.722;8.612;2023-03-31T00:42:59;12.30;99.90
5723;DHT22;2886;49.722;8.612;2023-03-31T00:45:28;12.30;99.90
5723;DHT22;2886;49.722;8.612;2023-03-31T00:47:56;12.30;99.90
5723;DHT22;2886;49.722;8.612;2023-03-31T00:50:26;12.30;99.90
5723;DHT22;2886;49.722;8.612;2023-03-31T00:53:02;12.30;99.90
5723;DHT22;2886;49.722;8.612;2023-03-31T00:55:34;12.30;99.90
5723;DHT22;2886;49.722;8.612;2023-03-31T00:58:02;12.20;99.90
5723;DHT22;2886;49.722;8.612;2023-03-31T01:00:30;12.20;99.90
5723;DHT22;2886;49.722;8.612;2023-03-31T01:02:58;12.10;99.90
5723;DHT22;2886;49.722;8.612;2023-03-31T01:05:30;12.20;99.90
5723;DHT22;2886;49.722;8.612;2023-03-31T01:07:57;12.10;99.90
5723;DHT22;2886;49.722;8.612;2023-03-31T01:10:23;12.10;99.90
5723;DHT22;2886;49.722;8.612;2023-03-31T01:12:52;12.10;99.90
5723;DHT22;2886;49.722;8.612;2023-03-31T01:15:18;12.00;99.90
5723;DHT22;2886;49.722;8.612;2023-03-31T01:17:44;12.10;99.90
5723;DHT22;2886;49.722;8.612;2023-03-31T01:20:34;12.10;99.90
5723;DHT22;2886;49.722;8.612;2023-03-31T01:40:13;12.40;99.90
5723;DHT22;2886;49.722;8.612;2023-03-31T01:43:09;12.40;99.90
5723;DHT22;2886;49.722;8.612;2023-03-31T01:46:01;12.40;99.90
5723;DHT22;2886;49.722;8.612;2023-03-31T01:48:49;12.30;99.90
5723;DHT22;2886;49.722;8.612;2023-03-31T01:51:25;12.30;99.90
5723;DHT22;2886;49.722;8.612;2023-03-31T01:57:14;12.20;99.90
5723;DHT22;2886;49.722;8.612;2023-03-31T02:00:27;12.20;99.90
5723;DHT22;2886;49.722;8.612;2023-03-31T02:02:31;12.20;99.90
5723;DHT22;2886;49.722;8.612;2023-03-31T02:05:14;12.20;99.90
5723;DHT22;2886;49.722;8.612;2023-03-31T02:07:52;12.20;99.90
5723;DHT22;2886;49.722;8.612;2023-03-31T02:10:20;12.10;99.90
5723;DHT22;2886;49.722;8.612;2023-03-31T02:12:47;12.10;99.90
5723;DHT22;2886;49.722;8.612;2023-03-31T02:15:19;12.10;99.90
5723;DHT22;2886;49.722;8.612;2023-03-31T02:17:48;12.10;99.90
5723;DHT22;2886;49.722;8.612;2023-03-31T02:20:18;12.10;99.90
5723;DHT22;2886;49.722;8.612;2023-03-31T02:22:54;12.10;99.90
5723;DHT22;2886;49.722;8.612;2023-03-31T02:25:37;12.10;99.90
5723;DHT22;2886;49.722;8.612;2023-03-31T02:28:10;12.20;99.90
5723;DHT22;2886;49.722;8.612;2023-03-31T02:30:48;12.20;99.90
5723;DHT22;2886;49.722;8.612;2023-03-31T02:33:15;12.20;99.90
5723;DHT22;2886;49.722;8.612;2023-03-31T02:35:41;12.20;99.90
5723;DHT22;2886;49.722;8.612;2023-03-31T02:38:07;12.20;99.90
5723;DHT22;2886;49.722;8.612;2023-03-31T02:40:33;12.20;99.90
5723;DHT22;2886;49.722;8.612;2023-03-31T02:42:58;12.20;99.90
5723;DHT22;2886;49.722;8.612;2023-03-31T02:45:45;12.20;99.90
5723;DHT22;2886;49.722;8.612;2023-03-31T02:48:38;12.10;99.90
5723;DHT22;2886;49.722;8.612;2023-03-31T03:00:38;12.00;99.90
5723;DHT22;2886;49.722;8.612;2023-03-31T03:03:18;11.90;99.90
5723;DHT22;2886;49.722;8.612;2023-03-31T03:06:18;11.90;99.90
5723;DHT22;2886;49.722;8.612;2023-03-31T03:15:07;11.80;99.90
5723;DHT22;2886;49.722;8.612;2023-03-31T03:17:46;11.70;99.90
5723;DHT22;2886;49.722;8.612;2023-03-31T03:20:14;11.60;99.90
5723;DHT22;2886;49.722;8.612;2023-03-31T03:22:41;11.60;99.90
5723;DHT22;2886;49.722;8.612;2023-03-31T03:25:09;11.70;99.90
5723;DHT22;2886;49.722;8.612;2023-03-31T03:27:37;11.60;99.90
5723;DHT22;2886;49.722;8.612;2023-03-31T03:30:04;11.70;99.90
5723;DHT22;2886;49.722;8.612;2023-03-31T03:32:31;11.70;99.90
5723;DHT22;2886;49.722;8.612;2023-03-31T03:35:02;11.70;99.90
5723;DHT22;2886;49.722;8.612;2023-03-31T03:37:29;11.80;99.90
5723;DHT22;2886;49.722;8.612;2023-03-31T03:39:55;11.70;99.90
5723;DHT22;2886;49.722;8.612;2023-03-31T03:42:20;11.80;99.90
5723;DHT22;2886;49.722;8.612;2023-03-31T03:44:46;11.80;99.90
5723;DHT22;2886;49.722;8.612;2023-03-31T03:47:12;11.80;99.90
5723;DHT22;2886;49.722;8.612;2023-03-31T03:49:39;11.80;99.90
5723;DHT22;2886;49.722;8.612;2023-03-31T03:52:05;11.70;99.90
5723;DHT22;2886;49.722;8.612;2023-03-31T03:54:31;11.70;99.90
5723;DHT22;2886;49.722;8.612;2023-03-31T03:56:57;11.70;99.90
5723;DHT22;2886;49.722;8.612;2023-03-31T03:59:23;11.70;99.90
5723;DHT22;2886;49.722;8.612;2023-03-31T04:01:48;11.70;99.90
5723;DHT22;2886;49.722;8.612;2023-03-31T04:04:14;11.70;99.90
5723;DHT22;2886;49.722;8.612;2023-03-31T04:06:40;11.70;99.90
5723;DHT22;2886;49.722;8.612;2023-03-31T04:09:06;11.80;99.90
5723;DHT22;2886;49.722;8.612;2023-03-31T04:11:32;11.70;99.90
5723;DHT22;2886;49.722;8.612;2023-03-31T04:13:58;11.70;99.90
5723;DHT22;2886;49.722;8.612;2023-03-31T04:16:23;11.70;99.90
5723;DHT22;2886;49.722;8.612;2023-03-31T04:18:50;11.70;99.90
5723;DHT22;2886;49.722;8.612;2023-03-31T04:21:17;11.70;99.90
5723;DHT22;2886;49.722;8.612;2023-03-31T04:23:53;11.70;99.90
5723;DHT22;2886;49.722;8.612;2023-03-31T04:26:33;11.80;99.90
5723;DHT22;2886;49.722;8.612;2023-03-31T04:29:12;11.80;99.90
5723;DHT22;2886;49.722;8.612;2023-03-31T04:31:39;11.80;99.90
5723;DHT22;2886;49.722;8.612;2023-03-31T04:34:08;11.90;99.90
5723;DHT22;2886;49.722;8.612;2023-03-31T04:36:40;11.90;99.90
5723;DHT22;2886;49.722;8.612;2023-03-31T04:39:07;11.90;99.90
5723;DHT22;2886;49.722;8.612;2023-03-31T04:41:35;11.90;99.90
5723;DHT22;2886;49.722;8.612;2023-03-31T04:44:01;11.90;99.90
5723;DHT22;2886;49.722;8.612;2023-03-31T04:46:27;11.90;99.90
5723;DHT22;2886;49.722;8.612;2023-03-31T04:48:53;11.90;99.90
5723;DHT22;2886;49.722;8.612;2023-03-31T04:51:18;11.90;99.90
5723;DHT22;2886;49.722;8.612;2023-03-31T04:53:45;12.00;99.90
5723;DHT22;2886;49.722;8.612;2023-03-31T04:56:11;12.00;99.90
5723;DHT22;2886;49.722;8.612;2023-03-31T04:58:37;12.00;99.90
5723;DHT22;2886;49.722;8.612;2023-03-31T05:01:03;11.90;99.90
5723;DHT22;2886;49.722;8.612;2023-03-31T05:03:33;11.90;99.90
5723;DHT22;2886;49.722;8.612;2023-03-31T05:05:59;11.80;99.90
5723;DHT22;2886;49.722;8.612;2023-03-31T05:08:30;11.70;99.90
5723;DHT22;2886;49.722;8.612;2023-03-31T05:10:56;11.60;99.90
5723;DHT22;2886;49.722;8.612;2023-03-31T05:13:22;11.60;99.90
5723;DHT22;2886;49.722;8.612;2023-03-31T05:15:48;11.50;99.90
5723;DHT22;2886;49.722;8.612;2023-03-31T05:18:15;11.50;99.90
5723;DHT22;2886;49.722;8.612;2023-03-31T05:20:41;11.50;99.90
5723;DHT22;2886;49.722;8.612;2023-03-31T05:23:08;11.40;99.90
5723;DHT22;2886;49.722;8.612;2023-03-31T05:25:33;11.40;99.90
5723;DHT22;2886;49.722;8.612;2023-03-31T05:28:00;11.40;99.90
5723;DHT22;2886;49.722;8.612;2023-03-31T05:30:26;11.40;99.90
5723;DHT22;2886;49.722;8.612;2023-03-31T05:32:52;11.40;99.90
5723;DHT22;2886;49.722;8.612;2023-03-31T05:35:18;11.40;99.90
5723;DHT22;2886;49.722;8.612;2023-03-31T05:37:43;11.30;99.90
5723;DHT22;2886;49.722;8.612;2023-03-31T05:40:09;11.30;99.90
5723;DHT22;2886;49.722;8.612;2023-03-31T05:42:36;11.20;99.90
5723;DHT22;2886;49.722;8.612;2023-03-31T05:45:02;11.20;99.90
5723;DHT22;2886;49.722;8.612;2023-03-31T05:47:29;11.20;99.90
5723;DHT22;2886;49.722;8.612;2023-03-31T05:49:55;11.10;99.90
5723;DHT22;2886;49.722;8.612;2023-03-31T05:52:21;11.10;99.90
5723;DHT22;2886;49.722;8.612;2023-03-31T05:54:47;11.10;99.90
5723;DHT22;2886;49.722;8.612;2023-03-31T05:57:12;11.20;99.90
5723;DHT22;2886;49.722;8.612;2023-03-31T05:59:38;11.20;99.90
5723;DHT22;2886;49.722;8.612;2023-03-31T06:02:05;11.20;99.90
5723;DHT22;2886;49.722;8.612;2023-03-31T06:04:31;11.10;99.90
5723;DHT22;2886;49.722;8.612;2023-03-31T06:06:57;11.10;99.90
5723;DHT22;2886;49.722;8.612;2023-03-31T06:09:23;11.10;99.90
5723;DHT22;2886;49.722;8.612;2023-03-31T06:11:49;11.10;99.90
5723;DHT22;2886;49.722;8.612;2023-03-31T06:14:14;11.00;99.90
5723;DHT22;2886;49.722;8.612;2023-03-31T06:16:40;11.00;99.90
5723;DHT22;2886;49.722;8.612;2023-03-31T06:19:06;10.90;99.90
5723;DHT22;2886;49.722;8.612;2023-03-31T06:21:32;10.80;99.90
5723;DHT22;2886;49.722;8.612;2023-03-31T06:23:57;10.80;99.90
5723;DHT22;2886;49.722;8.612;2023-03-31T06:26:25;10.80;99.90
5723;DHT22;2886;49.722;8.612;2023-03-31T06:28:50;10.70;99.90
5723;DHT22;2886;49.722;8.612;2023-03-31T06:31:18;10.80;99.90
5723;DHT22;2886;49.722;8.612;2023-03-31T06:33:44;10.80;99.90
5723;DHT22;2886;49.722;8.612;2023-03-31T06:36:12;10.90;99.90
5723;DHT22;2886;49.722;8.612;2023-03-31T06:38:38;11.00;99.90
5723;DHT22;2886;49.722;8.612;2023-03-31T06:41:08;11.10;99.90
5723;DHT22;2886;49.722;8.612;2023-03-31T06:43:35;11.10;99.90
5723;DHT22;2886;49.722;8.612;2023-03-31T06:46:01;11.20;99.90
5723;DHT22;2886;49.722;8.612;2023-03-31T06:48:27;11.30;99.90
5723;DHT22;2886;49.722;8.612;2023-03-31T06:50:53;11.30;99.90
5723;DHT22;2886;49.722;8.612;2023-03-31T06:53:20;11.40;99.90
5723;DHT22;2886;49.722;8.612;2023-03-31T06:55:46;11.40;99.90
5723;DHT22;2886;49.722;8.612;2023-03-31T06:58:12;11.40;99.90
5723;DHT22;2886;49.722;8.612;2023-03-31T07:00:38;11.50;99.90
5723;DHT22;2886;49.722;8.612;2023-03-31T07:03:05;11.50;99.90
5723;DHT22;2886;49.722;8.612;2023-03-31T07:05:31;11.50;99.90
5723;DHT22;2886;49.722;8.612;2023-03-31T07:07:58;11.50;99.90
5723;DHT22;2886;49.722;8.612;2023-03-31T07:10:25;11.50;99.90
5723;DHT22;2886;49.722;8.612;2023-03-31T07:12:52;11.50;99.90
5723;DHT22;2886;49.722;8.612;2023-03-31T07:15:18;11.50;99.90
5723;DHT22;2886;49.722;8.612;2023-03-31T07:17:43;11.50;99.90
5723;DHT22;2886;49.722;8.612;2023-03-31T07:20:14;11.50;99.90
5723;DHT22;2886;49.722;8.612;2023-03-31T07:22:41;11.60;99.90
5723;DHT22;2886;49.722;8.612;2023-03-31T07:25:08;11.60;99.90
5723;DHT22;2886;49.722;8.612;2023-03-31T07:27:35;11.60;99.90
5723;DHT22;2886;49.722;8.612;2023-03-31T07:30:01;11.70;99.90
5723;DHT22;2886;49.722;8.612;2023-03-31T07:32:27;11.70;99.90
5723;DHT22;2886;49.722;8.612;2023-03-31T07:34:52;11.60;99.90
5723;DHT22;2886;49.722;8.612;2023-03-31T07:37:18;11.60;99.90
5723;DHT22;2886;49.722;8.612;2023-03-31T07:39:44;11.50;99.90
5723;DHT22;2886;49.722;8.612;2023-03-31T07:42:09;11.30;99.90
5723;DHT22;2886;49.722;8.612;2023-03-31T07:44:36;11.10;99.90
5723;DHT22;2886;49.722;8.612;2023-03-31T07:47:02;11.00;99.90
5723;DHT22;2886;49.722;8.612;2023-03-31T07:49:31;11.00;99.90
5723;DHT22;2886;49.722;8.612;2023-03-31T07:51:57;10.90;99.90
5723;DHT22;2886;49.722;8.612;2023-03-31T07:54:22;10.80;99.90
5723;DHT22;2886;49.722;8.612;2023-03-31T07:56:48;10.70;99.90
5723;DHT22;2886;49.722;8.612;2023-03-31T07:59:14;10.70;99.90
5723;DHT22;2886;49.722;8.612;2023-03-31T08:01:39;10.70;99.90
5723;DHT22;2886;49.722;8.612;2023-03-31T08:04:05;10.80;99.90
5723;DHT22;2886;49.722;8.612;2023-03-31T08:06:31;10.80;99.90
5723;DHT22;2886;49.722;8.612;2023-03-31T08:08:57;10.80;99.90
5723;DHT22;2886;49.722;8.612;2023-03-31T08:11:24;11.00;99.90
5723;DHT22;2886;49.722;8.612;2023-03-31T08:13:50;11.10;99.90
5723;DHT22;2886;49.722;8.612;2023-03-31T08:16:16;11.20;99.90
5723;DHT22;2886;49.722;8.612;2023-03-31T08:18:42;11.20;99.90
5723;DHT22;2886;49.722;8.612;2023-03-31T08:21:07;11.30;99.90
5723;DHT22;2886;49.722;8.612;2023-03-31T08:23:36;11.30;99.90
5723;DHT22;2886;49.722;8.612;2023-03-31T08:26:16;11.30;99.90
5723;DHT22;2886;49.722;8.612;2023-03-31T08:28:43;11.30;99.90
5723;DHT22;2886;49.722;8.612;2023-03-31T08:31:08;11.30;99.90
5723;DHT22;2886;49.722;8.612;2023-03-31T08:33:35;11.30;99.90
5723;DHT22;2886;49.722;8.612;2023-03-31T08:36:07;11.30;99.90
5723;DHT22;2886;49.722;8.612;2023-03-31T08:38:35;11.30;99.90
5723;DHT22;2886;49.722;8.612;2023-03-31T08:41:03;11.30;99.90
5723;DHT22;2886;49.722;8.612;2023-03-31T08:43:33;11.30;99.90
5723;DHT22;2886;49.722;8.612;2023-03-31T08:46:02;11.30;99.90
5723;DHT22;2886;49.722;8.612;2023-03-31T08:48:37;11.40;99.90
5723;DHT22;2886;49.722;8.612;2023-03-31T08:51:30;11.40;99.90
5723;DHT22;2886;49.722;8.612;2023-03-31T08:56:28;11.70;99.90
5723;DHT22;2886;49.722;8.612;2023-03-31T08:58:54;11.80;99.90
5723;DHT22;2886;49.722;8.612;2023-03-31T09:01:37;11.80;99.90
5723;DHT22;2886;49.722;8.612;2023-03-31T09:09:29;12.20;99.90
5723;DHT22;2886;49.722;8.612;2023-03-31T09:12:00;13.00;99.90
5723;DHT22;2886;49.722;8.612;2023-03-31T09:14:34;13.60;99.90
5723;DHT22;2886;49.722;8.612;2023-03-31T09:19:35;13.80;99.90
5723;DHT22;2886;49.722;8.612;2023-03-31T09:22:04;14.00;99.90
5723;DHT22;2886;49.722;8.612;2023-03-31T09:24:46;14.20;99.90
5723;DHT22;2886;49.722;8.612;2023-03-31T09:27:14;14.00;99.90
5723;DHT22;2886;49.722;8.612;2023-03-31T09:29:57;13.70;99.90
5723;DHT22;2886;49.722;8.612;2023-03-31T09:32:28;13.30;99.90
5723;DHT22;2886;49.722;8.612;2023-03-31T09:35:23;13.00;99.90
5723;DHT22;2886;49.722;8.612;2023-03-31T09:37:53;12.90;99.90
5723;DHT22;2886;49.722;8.612;2023-03-31T09:40:22;12.90;99.90
5723;DHT22;2886;49.722;8.612;2023-03-31T09:43:06;12.80;99.90
5723;DHT22;2886;49.722;8.612;2023-03-31T09:45:33;12.70;99.90
5723;DHT22;2886;49.722;8.612;2023-03-31T09:48:05;12.60;99.90
5723;DHT22;2886;49.722;8.612;2023-03-31T09:50:45;12.50;99.90
5723;DHT22;2886;49.722;8.612;2023-03-31T09:53:18;12.20;99.90
5723;DHT22;2886;49.722;8.612;2023-03-31T09:55:51;11.90;99.90
5723;DHT22;2886;49.722;8.612;2023-03-31T09:58:17;11.80;99.90
5723;DHT22;2886;49.722;8.612;2023-03-31T10:01:13;11.90;99.90
5723;DHT22;2886;49.722;8.612;2023-03-31T10:03:52;12.00;99.90
5723;DHT22;2886;49.722;8.612;2023-03-31T10:06:19;12.20;99.90
5723;DHT22;2886;49.722;8.612;2023-03-31T10:08:55;12.20;99.90
5723;DHT22;2886;49.722;8.612;2023-03-31T10:11:22;12.30;99.90
5723;DHT22;2886;49.722;8.612;2023-03-31T10:14:02;12.40;99.90
5723;DHT22;2886;49.722;8.612;2023-03-31T10:16:33;12.60;99.90
5723;DHT22;2886;49.722;8.612;2023-03-31T10:19:21;12.90;99.90
5723;DHT22;2886;49.722;8.612;2023-03-31T10:22:01;13.00;99.90
5723;DHT22;2886;49.722;8.612;2023-03-31T10:24:45;13.20;99.90
5723;DHT22;2886;49.722;8.612;2023-03-31T10:27:25;13.40;99.90
5723;DHT22;2886;49.722;8.612;2023-03-31T10:29:53;13.50;99.90
5723;DHT22;2886;49.722;8.612;2023-03-31T10:32:31;13.60;99.90
5723;DHT22;2886;49.722;8.612;2023-03-31T10:35:06;13.90;99.90
5723;DHT22;2886;49.722;8.612;2023-03-31T10:37:34;14.10;99.90
5723;DHT22;2886;49.722;8.612;2023-03-31T10:40:03;14.20;99.90
5723;DHT22;2886;49.722;8.612;2023-03-31T10:42:32;14.30;99.90
5723;DHT22;2886;49.722;8.612;2023-03-31T10:45:25;14.30;99.90
5723;DHT22;2886;49.722;8.612;2023-03-31T10:47:56;14.40;99.90
5723;DHT22;2886;49.722;8.612;2023-03-31T10:50:28;14.60;99.90
5723;DHT22;2886;49.722;8.612;2023-03-31T10:53:04;14.80;99.90
5723;DHT22;2886;49.722;8.612;2023-03-31T10:55:35;14.90;99.10
5723;DHT22;2886;49.722;8.612;2023-03-31T10:58:26;14.90;98.50
5723;DHT22;2886;49.722;8.612;2023-03-31T11:01:13;14.90;99.80
5723;DHT22;2886;49.722;8.612;2023-03-31T11:04:17;14.90;99.90
5723;DHT22;2886;49.722;8.612;2023-03-31T11:12:20;15.10;99.90
5723;DHT22;2886;49.722;8.612;2023-03-31T11:15:06;15.20;99.90
5723;DHT22;2886;49.722;8.612;2023-03-31T11:23:41;15.40;99.90
5723;DHT22;2886;49.722;8.612;2023-03-31T11:29:11;15.30;99.90
5723;DHT22;2886;49.722;8.612;2023-03-31T11:35:01;14.90;99.90
5723;DHT22;2886;49.722;8.612;2023-03-31T11:37:46;14.80;99.90
5723;DHT22;2886;49.722;8.612;2023-03-31T11:40:38;14.80;99.90
5723;DHT22;2886;49.722;8.612;2023-03-31T11:46:07;14.80;99.90
5723;DHT22;2886;49.722;8.612;2023-03-31T11:51:23;14.90;99.90
5723;DHT22;2886;49.722;8.612;2023-03-31T11:53:51;14.90;99.90
5723;DHT22;2886;49.722;8.612;2023-03-31T11:56:18;14.90;99.60
5723;DHT22;2886;49.722;8.612;2023-03-31T11:58:53;14.90;99.30
5723;DHT22;2886;49.722;8.612;2023-03-31T12:04:38;15.20;96.20
5723;DHT22;2886;49.722;8.612;2023-03-31T12:07:30;15.30;95.60
5723;DHT22;2886;49.722;8.612;2023-03-31T12:10:02;15.40;96.50
5723;DHT22;2886;49.722;8.612;2023-03-31T12:12:48;15.60;96.50
5723;DHT22;2886;49.722;8.612;2023-03-31T12:15:26;15.80;97.50
5723;DHT22;2886;49.722;8.612;2023-03-31T12:17:59;15.60;98.50
5723;DHT22;2886;49.722;8.612;2023-03-31T12:20:34;15.40;98.70
5723;DHT22;2886;49.722;8.612;2023-03-31T12:23:04;15.20;98.90
5723;DHT22;2886;49.722;8.612;2023-03-31T12:25:54;15.00;99.50
5723;DHT22;2886;49.722;8.612;2023-03-31T12:28:22;14.90;99.50
5723;DHT22;2886;49.722;8.612;2023-03-31T12:30:49;15.00;98.30
5723;DHT22;2886;49.722;8.612;2023-03-31T12:36:19;15.60;95.20
5723;DHT22;2886;49.722;8.612;2023-03-31T12:41:38;16.10;95.40
5723;DHT22;2886;49.722;8.612;2023-03-31T12:47:15;16.50;91.60
5723;DHT22;2886;49.722;8.612;2023-03-31T12:49:58;16.70;89.30
5723;DHT22;2886;49.722;8.612;2023-03-31T12:55:56;16.60;87.90
5723;DHT22;2886;49.722;8.612;2023-03-31T13:01:41;16.90;88.00
5723;DHT22;2886;49.722;8.612;2023-03-31T13:04:20;17.00;84.50
5723;DHT22;2886;49.722;8.612;2023-03-31T13:06:54;16.80;83.90
5723;DHT22;2886;49.722;8.612;2023-03-31T13:09:54;16.60;85.70
5723;DHT22;2886;49.722;8.612;2023-03-31T13:12:23;16.60;84.90
5723;DHT22;2886;49.722;8.612;2023-03-31T13:14:51;16.40;85.20
5723;DHT22;2886;49.722;8.612;2023-03-31T13:17:26;16.30;86.00
5723;DHT22;2886;49.722;8.612;2023-03-31T13:19:56;16.10;86.70
5723;DHT22;2886;49.722;8.612;2023-03-31T13:22:42;16.10;88.50
5723;DHT22;2886;49.722;8.612;2023-03-31T13:27:54;15.90;87.20
5723;DHT22;2886;49.722;8.612;2023-03-31T13:30:45;15.70;87.80
5723;DHT22;2886;49.722;8.612;2023-03-31T13:55:56;13.00;99.90
5723;DHT22;2886;49.722;8.612;2023-03-31T14:06:40;14.20;99.90
5723;DHT22;2886;49.722;8.612;2023-03-31T14:09:14;14.20;99.90
5723;DHT22;2886;49.722;8.612;2023-03-31T14:11:41;14.20;99.90
5723;DHT22;2886;49.722;8.612;2023-03-31T14:14:14;14.10;99.90
5723;DHT22;2886;49.722;8.612;2023-03-31T14:35:49;14.90;97.30
5723;DHT22;2886;49.722;8.612;2023-03-31T14:38:19;15.20;96.80
5723;DHT22;2886;49.722;8.612;2023-03-31T14:40:47;15.30;95.50
5723;DHT22;2886;49.722;8.612;2023-03-31T14:43:27;15.40;95.10
5723;DHT22;2886;49.722;8.612;2023-03-31T14:46:05;15.40;94.70
5723;DHT22;2886;49.722;8.612;2023-03-31T14:48:40;15.30;94.20
5723;DHT22;2886;49.722;8.612;2023-03-31T14:51:10;15.20;95.10
5723;DHT22;2886;49.722;8.612;2023-03-31T14:53:36;15.10;94.00
5723;DHT22;2886;49.722;8.612;2023-03-31T14:56:29;15.10;93.10
5723;DHT22;2886;49.722;8.612;2023-03-31T14:58:58;15.00;93.00
5723;DHT22;2886;49.722;8.612;2023-03-31T15:01:28;14.90;92.60
5723;DHT22;2886;49.722;8.612;2023-03-31T15:03:59;14.80;91.50
5723;DHT22;2886;49.722;8.612;2023-03-31T15:06:25;14.60;91.50
5723;DHT22;2886;49.722;8.612;2023-03-31T15:08:56;14.40;92.10
5723;DHT22;2886;49.722;8.612;2023-03-31T15:11:22;13.50;99.90
5723;DHT22;2886;49.722;8.612;2023-03-31T15:13:50;12.10;99.90
5723;DHT22;2886;49.722;8.612;2023-03-31T15:16:39;11.40;99.90
5723;DHT22;2886;49.722;8.612;2023-03-31T15:19:15;11.00;99.90
5723;DHT22;2886;49.722;8.612;2023-03-31T15:21:42;10.90;99.90
5723;DHT22;2886;49.722;8.612;2023-03-31T15:24:12;10.90;99.90
5723;DHT22;2886;49.722;8.612;2023-03-31T15:26:49;10.90;99.90
5723;DHT22;2886;49.722;8.612;2023-03-31T15:29:18;10.90;99.90
5723;DHT22;2886;49.722;8.612;2023-03-31T15:31:45;11.00;99.90
5723;DHT22;2886;49.722;8.612;2023-03-31T15:34:30;11.10;99.90
5723;DHT22;2886;49.722;8.612;2023-03-31T15:36:57;11.30;99.90
5723;DHT22;2886;49.722;8.612;2023-03-31T15:39:26;11.40;99.90
5723;DHT22;2886;49.722;8.612;2023-03-31T15:41:53;11.50;99.90
5723;DHT22;2886;49.722;8.612;2023-03-31T15:45:23;11.60;99.90
5723;DHT22;2886;49.722;8.612;2023-03-31T15:47:20;11.70;99.90
5723;DHT22;2886;49.722;8.612;2023-03-31T15:49:58;11.90;99.90
5723;DHT22;2886;49.722;8.612;2023-03-31T15:52:30;11.90;99.90
5723;DHT22;2886;49.722;8.612;2023-03-31T15:54:58;11.90;99.90
5723;DHT22;2886;49.722;8.612;2023-03-31T15:57:34;11.90;99.90
5723;DHT22;2886;49.722;8.612;2023-03-31T16:00:01;11.90;99.90
5723;DHT22;2886;49.722;8.612;2023-03-31T16:02:41;11.90;99.90
5723;DHT22;2886;49.722;8.612;2023-03-31T16:07:53;12.10;99.90
5723;DHT22;2886;49.722;8.612;2023-03-31T16:10:20;12.10;99.90
5723;DHT22;2886;49.722;8.612;2023-03-31T16:12:59;12.20;99.90
5723;DHT22;2886;49.722;8.612;2023-03-31T16:18:04;12.20;99.90
5723;DHT22;2886;49.722;8.612;2023-03-31T16:20:37;12.20;99.90
5723;DHT22;2886;49.722;8.612;2023-03-31T16:23:31;12.20;99.90
5723;DHT22;2886;49.722;8.612;2023-03-31T16:25:59;12.20;99.90
5723;DHT22;2886;49.722;8.612;2023-03-31T16:28:26;12.20;99.90
5723;DHT22;2886;49.722;8.612;2023-03-31T16:30:53;12.30;99.90
5723;DHT22;2886;49.722;8.612;2023-03-31T16:33:20;12.20;99.90
5723;DHT22;2886;49.722;8.612;2023-03-31T16:35:54;12.30;99.90
5723;DHT22;2886;49.722;8.612;2023-03-31T16:38:27;12.30;99.90
5723;DHT22;2886;49.722;8.612;2023-03-31T16:40:56;12.30;99.90
5723;DHT22;2886;49.722;8.612;2023-03-31T16:43:27;12.30;99.90
5723;DHT22;2886;49.722;8.612;2023-03-31T16:45:53;12.30;99.90
5723;DHT22;2886;49.722;8.612;2023-03-31T16:48:21;12.30;99.90
5723;DHT22;2886;49.722;8.612;2023-03-31T16:50:52;12.20;99.90
5723;DHT22;2886;49.722;8.612;2023-03-31T16:53:21;12.20;99.90
5723;DHT22;2886;49.722;8.612;2023-03-31T16:55:47;12.20;99.90
5723;DHT22;2886;49.722;8.612;2023-03-31T16:58:14;12.20;99.90
5723;DHT22;2886;49.722;8.612;2023-03-31T17:00:40;12.10;99.90
5723;DHT22;2886;49.722;8.612;2023-03-31T17:03:07;12.10;99.90
5723;DHT22;2886;49.722;8.612;2023-03-31T17:05:39;12.10;99.90
5723;DHT22;2886;49.722;8.612;2023-03-31T17:08:06;12.10;99.90
5723;DHT22;2886;49.722;8.612;2023-03-31T17:10:33;12.10;99.90
5723;DHT22;2886;49.722;8.612;2023-03-31T17:12:59;12.10;99.90
5723;DHT22;2886;49.722;8.612;2023-03-31T17:15:25;12.10;99.90
5723;DHT22;2886;49.722;8.612;2023-03-31T17:17:51;12.10;99.90
5723;DHT22;2886;49.722;8.612;2023-03-31T17:20:17;12.00;99.90
5723;DHT22;2886;49.722;8.612;2023-03-31T17:22:42;12.00;99.90
5723;DHT22;2886;49.722;8.612;2023-03-31T17:25:08;12.00;99.90
5723;DHT22;2886;49.722;8.612;2023-03-31T17:27:35;12.00;99.90
5723;DHT22;2886;49.722;8.612;2023-03-31T17:30:00;12.10;99.90
5723;DHT22;2886;49.722;8.612;2023-03-31T17:32:26;12.10;99.90
5723;DHT22;2886;49.722;8.612;2023-03-31T17:34:52;12.10;99.90
5723;DHT22;2886;49.722;8.612;2023-03-31T17:37:19;12.10;99.90
5723;DHT22;2886;49.722;8.612;2023-03-31T17:39:44;12.10;99.90
5723;DHT22;2886;49.722;8.612;2023-03-31T17:42:11;12.00;99.90
5723;DHT22;2886;49.722;8.612;2023-03-31T17:44:39;12.00;99.90
5723;DHT22;2886;49.722;8.612;2023-03-31T17:47:05;12.10;99.90
5723;DHT22;2886;49.722;8.612;2023-03-31T17:49:31;12.10;99.90
5723;DHT22;2886;49.722;8.612;2023-03-31T17:51:58;12.10;99.90
5723;DHT22;2886;49.722;8.612;2023-03-31T17:54:24;12.10;99.90
5723;DHT22;2886;49.722;8.612;2023-03-31T17:56:49;12.10;99.90
5723;DHT22;2886;49.722;8.612;2023-03-31T17:59:16;12.10;99.90
5723;DHT22;2886;49.722;8.612;2023-03-31T18:01:43;12.10;99.90
5723;DHT22;2886;49.722;8.612;2023-03-31T18:04:09;12.10;99.90
5723;DHT22;2886;49.722;8.612;2023-03-31T18:06:34;12.10;99.90
5723;DHT22;2886;49.722;8.612;2023-03-31T18:09:00;12.10;99.90
5723;DHT22;2886;49.722;8.612;2023-03-31T18:11:26;12.10;99.90
5723;DHT22;2886;49.722;8.612;2023-03-31T18:13:52;12.10;99.90
5723;DHT22;2886;49.722;8.612;2023-03-31T18:16:18;12.00;99.90
5723;DHT22;2886;49.722;8.612;2023-03-31T18:18:44;12.00;99.90
5723;DHT22;2886;49.722;8.612;2023-03-31T18:21:11;12.00;99.90
5723;DHT22;2886;49.722;8.612;2023-03-31T18:23:38;11.90;99.90
5723;DHT22;2886;49.722;8.612;2023-03-31T18:26:11;11.90;99.90
5723;DHT22;2886;49.722;8.612;2023-03-31T18:28:38;11.90;99.90
5723;DHT22;2886;49.722;8.612;2023-03-31T18:31:08;11.90;99.90
5723;DHT22;2886;49.722;8.612;2023-03-31T18:33:35;11.80;99.90
5723;DHT22;2886;49.722;8.612;2023-03-31T18:36:01;11.80;99.90
5723;DHT22;2886;49.722;8.612;2023-03-31T18:38:27;11.80;99.90
5723;DHT22;2886;49.722;8.612;2023-03-31T18:40:53;11.80;99.90
5723;DHT22;2886;49.722;8.612;2023-03-31T18:43:20;11.80;99.90
5723;DHT22;2886;49.722;8.612;2023-03-31T18:45:52;11.80;99.90
5723;DHT22;2886;49.722;8.612;2023-03-31T18:48:19;11.80;99.90
5723;DHT22;2886;49.722;8.612;2023-03-31T18:50:47;11.80;99.90